createdAt,value
2022-11-07T00:01:46.094Z,3.50
2022-11-07T00:04:13.329Z,3.23
2022-11-07T00:06:40.528Z,3.43
2022-11-07T00:09:07.657Z,3.97
2022-11-07T00:11:34.867Z,3.00
2022-11-07T00:14:02.060Z,3.03
2022-11-07T00:16:29.441Z,2.53
2022-11-07T00:18:59.036Z,2.93
2022-11-07T00:21:26.124Z,2.53
2022-11-07T00:23:53.307Z,3.23
2022-11-07T00:26:20.437Z,3.50
2022-11-07T00:28:49.763Z,2.97
2022-11-07T00:31:16.920Z,2.20
2022-11-07T00:33:47.406Z,2.23
2022-11-07T00:36:18.821Z,2.47
2022-11-07T00:38:46.170Z,2.50
2022-11-07T00:41:13.333Z,2.00
2022-11-07T00:43:40.461Z,2.17
2022-11-07T00:46:10.236Z,2.40
2022-11-07T00:48:37.469Z,2.20
2022-11-07T00:51:14.393Z,2.30
2022-11-07T00:53:41.567Z,2.50
2022-11-07T00:56:09.289Z,2.80
2022-11-07T00:58:36.456Z,2.00
2022-11-07T01:01:10.011Z,1.60
2022-11-07T01:03:55.957Z,2.03
2022-11-07T01:06:23.078Z,1.77
2022-11-07T01:08:50.264Z,1.77
2022-11-07T01:11:17.382Z,2.30
2022-11-07T01:13:44.487Z,1.97
2022-11-07T01:16:11.613Z,1.90
2022-11-07T01:18:38.730Z,3.03
2022-11-07T01:21:06.491Z,2.40
2022-11-07T01:23:33.630Z,2.10
2022-11-07T01:26:04.661Z,1.87
2022-11-07T01:28:31.795Z,2.00
2022-11-07T01:30:58.881Z,2.10
2022-11-07T01:33:25.981Z,1.70
2022-11-07T01:35:53.080Z,2.00
2022-11-07T01:38:20.178Z,2.00
2022-11-07T01:41:06.315Z,2.00
2022-11-07T01:43:47.775Z,2.23
2022-11-07T01:46:15.051Z,2.27
2022-11-07T01:48:42.718Z,2.10
2022-11-07T01:51:09.929Z,2.13
2022-11-07T01:53:37.167Z,2.40
2022-11-07T01:56:05.036Z,1.90
2022-11-07T01:58:32.115Z,2.03
2022-11-07T02:01:02.322Z,2.20
2022-11-07T02:03:31.906Z,2.80
2022-11-07T02:06:00.267Z,1.90
2022-11-07T02:08:27.528Z,2.40
2022-11-07T02:10:54.665Z,2.67
2022-11-07T02:13:26.388Z,1.87
2022-11-07T02:15:53.591Z,1.77
2022-11-07T02:18:20.831Z,2.40
2022-11-07T02:20:48.120Z,3.43
2022-11-07T02:23:20.199Z,2.37
2022-11-07T02:25:50.557Z,2.10
2022-11-07T02:28:19.810Z,1.70
2022-11-07T02:30:46.907Z,3.67
2022-11-07T02:33:20.301Z,2.23
2022-11-07T02:35:48.119Z,3.00
2022-11-07T02:38:15.221Z,2.40
2022-11-07T02:40:42.351Z,2.10
2022-11-07T02:43:10.414Z,2.83
2022-11-07T02:45:38.584Z,2.03
2022-11-07T02:48:05.998Z,2.13
2022-11-07T02:50:33.105Z,1.70
2022-11-07T02:53:00.411Z,1.70
2022-11-07T02:55:27.504Z,1.60
2022-11-07T02:57:54.625Z,2.63
2022-11-07T03:00:21.739Z,2.07
2022-11-07T03:02:49.152Z,1.90
2022-11-07T03:05:16.964Z,2.10
2022-11-07T03:07:44.494Z,2.10
2022-11-07T03:10:11.743Z,1.97
2022-11-07T03:12:38.829Z,1.90
2022-11-07T03:15:06.624Z,1.90
2022-11-07T03:17:33.729Z,2.77
2022-11-07T03:20:00.877Z,2.47
2022-11-07T03:22:28.117Z,3.63
2022-11-07T03:24:55.204Z,2.20
2022-11-07T03:27:22.472Z,2.40
2022-11-07T03:29:49.553Z,3.77
2022-11-07T03:32:16.729Z,2.00
2022-11-07T03:34:43.829Z,2.77
2022-11-07T03:37:10.903Z,2.47
2022-11-07T03:39:38.009Z,2.70
2022-11-07T03:42:05.162Z,2.07
2022-11-07T03:44:32.381Z,2.87
2022-11-07T03:46:59.514Z,1.80
2022-11-07T03:49:27.049Z,2.10
2022-11-07T03:51:54.113Z,2.27
2022-11-07T03:54:21.218Z,1.97
2022-11-07T03:56:48.366Z,1.63
2022-11-07T03:59:15.470Z,2.13
2022-11-07T04:01:42.838Z,3.07
2022-11-07T04:04:10.018Z,3.00
2022-11-07T04:06:37.217Z,2.27
2022-11-07T04:09:04.344Z,2.13
2022-11-07T04:11:50.102Z,2.77
2022-11-07T04:14:35.791Z,2.53
2022-11-07T04:17:21.514Z,2.10
2022-11-07T04:19:48.837Z,2.23
2022-11-07T04:22:15.980Z,2.90
2022-11-07T04:24:45.966Z,3.30
2022-11-07T04:27:32.684Z,2.60
2022-11-07T04:29:59.829Z,2.50
2022-11-07T04:32:26.970Z,2.60
2022-11-07T04:34:54.099Z,2.20
2022-11-07T04:37:21.165Z,2.10
2022-11-07T04:39:48.323Z,2.67
2022-11-07T04:42:15.396Z,2.60
2022-11-07T04:44:42.565Z,4.33
2022-11-07T04:47:12.648Z,2.93
2022-11-07T04:49:39.757Z,3.93
2022-11-07T04:52:06.843Z,2.60
2022-11-07T04:54:33.958Z,2.60
2022-11-07T04:57:01.043Z,2.07
2022-11-07T04:59:28.187Z,2.97
2022-11-07T05:01:55.361Z,2.30
2022-11-07T05:04:22.684Z,2.60
2022-11-07T05:06:49.835Z,2.50
2022-11-07T05:09:20.415Z,2.83
2022-11-07T05:11:47.773Z,2.50
2022-11-07T05:14:17.365Z,3.07
2022-11-07T05:16:44.522Z,2.53
2022-11-07T05:19:16.900Z,5.00
2022-11-07T05:21:47.239Z,3.63
2022-11-07T05:24:14.425Z,3.43
2022-11-07T05:26:41.682Z,3.17
2022-11-07T05:29:10.813Z,3.70
2022-11-07T05:31:37.904Z,2.80
2022-11-07T05:34:10.855Z,2.60
2022-11-07T05:36:40.839Z,2.70
2022-11-07T05:39:08.003Z,2.63
2022-11-07T05:41:35.802Z,4.30
2022-11-07T05:44:02.957Z,3.13
2022-11-07T05:46:30.051Z,3.37
2022-11-07T05:49:00.908Z,3.03
2022-11-07T05:51:28.314Z,3.10
2022-11-07T05:53:55.581Z,3.23
2022-11-07T05:56:22.669Z,3.00
2022-11-07T05:58:52.002Z,4.60
2022-11-07T06:01:19.119Z,3.90
2022-11-07T06:03:46.259Z,3.33
2022-11-07T06:06:13.369Z,3.20
2022-11-07T06:08:41.639Z,2.97
2022-11-07T06:11:09.130Z,4.73
2022-11-07T06:13:36.259Z,3.07
2022-11-07T06:16:03.471Z,3.43
2022-11-07T06:18:30.734Z,3.77
2022-11-07T06:20:58.020Z,3.33
2022-11-07T06:23:25.214Z,4.97
2022-11-07T06:25:52.341Z,2.70
2022-11-07T06:28:19.553Z,3.33
2022-11-07T06:30:46.720Z,3.37
2022-11-07T06:33:17.832Z,3.37
2022-11-07T06:35:46.024Z,2.93
2022-11-07T06:38:13.752Z,2.23
2022-11-07T06:40:41.406Z,3.40
2022-11-07T06:43:10.395Z,3.50
2022-11-07T06:45:37.637Z,3.13
2022-11-07T06:48:05.062Z,3.30
2022-11-07T06:50:32.237Z,4.03
2022-11-07T06:53:03.352Z,4.50
2022-11-07T06:55:30.635Z,4.20
2022-11-07T06:58:00.955Z,3.80
2022-11-07T07:00:31.992Z,4.00
2022-11-07T07:03:02.526Z,4.00
2022-11-07T07:05:29.748Z,4.03
2022-11-07T07:07:59.837Z,3.37
2022-11-07T07:10:27.044Z,3.20
2022-11-07T07:12:54.370Z,3.33
2022-11-07T07:15:21.695Z,3.00
2022-11-07T07:17:49.180Z,3.30
2022-11-07T07:20:16.422Z,3.47
2022-11-07T07:22:44.825Z,4.30
2022-11-07T07:25:14.256Z,3.87
2022-11-07T07:27:41.421Z,4.93
2022-11-07T07:30:11.421Z,3.03
2022-11-07T07:32:39.802Z,3.30
2022-11-07T07:35:07.270Z,3.33
2022-11-07T07:37:34.421Z,3.10
2022-11-07T07:40:01.625Z,3.60
2022-11-07T07:42:28.729Z,3.93
2022-11-07T07:44:55.861Z,8.20
2022-11-07T07:47:23.028Z,3.17
2022-11-07T07:49:50.144Z,3.27
2022-11-07T07:52:17.242Z,3.43
2022-11-07T07:54:44.432Z,4.20
2022-11-07T07:57:11.595Z,3.50
2022-11-07T07:59:38.758Z,4.80
2022-11-07T08:02:05.922Z,3.73
2022-11-07T08:04:33.142Z,7.23
2022-11-07T08:07:00.222Z,11.80
2022-11-07T08:09:27.416Z,5.90
2022-11-07T08:11:54.570Z,3.33
2022-11-07T08:14:21.861Z,3.97
2022-11-07T08:16:49.009Z,2.10
2022-11-07T08:19:16.177Z,2.90
2022-11-07T08:21:44.743Z,3.20
2022-11-07T08:24:11.897Z,4.60
2022-11-07T08:26:38.989Z,2.67
2022-11-07T08:29:06.143Z,2.23
2022-11-07T08:31:35.569Z,2.40
2022-11-07T08:34:02.755Z,3.20
2022-11-07T08:36:29.914Z,5.43
2022-11-07T08:38:57.022Z,4.10
2022-11-07T08:41:24.093Z,2.73
2022-11-07T08:43:51.220Z,3.80
2022-11-07T08:46:18.291Z,2.53
2022-11-07T08:48:45.426Z,1.70
2022-11-07T08:51:12.571Z,4.67
2022-11-07T08:53:39.709Z,2.40
2022-11-07T08:56:07.835Z,3.87
2022-11-07T08:58:35.143Z,1.80
2022-11-07T09:01:03.061Z,2.00
2022-11-07T09:03:45.133Z,2.83
2022-11-07T09:06:13.593Z,1.67
2022-11-07T09:08:41.183Z,2.27
2022-11-07T09:11:08.338Z,1.77
2022-11-07T09:13:35.447Z,1.63
2022-11-07T09:16:02.848Z,1.40
2022-11-07T09:18:29.980Z,2.27
2022-11-07T09:20:57.959Z,1.23
2022-11-07T09:23:25.251Z,2.50
2022-11-07T09:25:53.401Z,2.60
2022-11-07T09:28:20.549Z,1.90
2022-11-07T09:30:47.656Z,2.00
2022-11-07T09:33:15.037Z,1.40
2022-11-07T09:35:42.417Z,2.57
2022-11-07T09:38:09.503Z,1.90
2022-11-07T09:40:40.651Z,1.70
2022-11-07T09:43:07.864Z,1.47
2022-11-07T09:45:37.961Z,4.63
2022-11-07T09:48:06.363Z,1.20
2022-11-07T09:50:37.035Z,2.07
2022-11-07T09:53:13.528Z,4.33
2022-11-07T09:55:52.961Z,4.40
2022-11-07T09:58:40.290Z,8.50
2022-11-07T10:01:08.021Z,2.00
2022-11-07T10:03:35.706Z,1.70
2022-11-07T10:06:24.203Z,2.90
2022-11-07T10:08:53.106Z,1.23
2022-11-07T10:11:23.233Z,0.70
2022-11-07T10:13:55.566Z,1.90
2022-11-07T10:16:29.107Z,2.70
2022-11-07T10:19:02.114Z,1.43
2022-11-07T10:21:39.100Z,3.53
2022-11-07T10:24:06.550Z,1.60
2022-11-07T10:26:33.648Z,1.17
2022-11-07T10:29:02.846Z,1.50
2022-11-07T10:31:36.972Z,1.20
2022-11-07T10:34:05.934Z,1.80
2022-11-07T10:36:33.789Z,1.30
2022-11-07T10:39:01.781Z,1.70
2022-11-07T10:41:29.879Z,3.73
2022-11-07T10:44:00.867Z,1.27
2022-11-07T10:46:39.073Z,2.53
2022-11-07T10:49:19.977Z,3.73
2022-11-07T10:51:47.122Z,1.30
2022-11-07T10:54:23.068Z,3.40
2022-11-07T10:56:51.048Z,1.67
2022-11-07T10:59:24.242Z,1.73
2022-11-07T11:01:54.987Z,1.73
2022-11-07T11:04:25.852Z,4.87
2022-11-07T11:07:06.149Z,1.30
2022-11-07T11:09:34.258Z,1.47
2022-11-07T11:12:04.740Z,1.43
2022-11-07T11:14:31.833Z,1.63
2022-11-07T11:16:59.027Z,3.00
2022-11-07T11:19:26.903Z,3.10
2022-11-07T11:21:55.381Z,1.27
2022-11-07T11:24:37.364Z,1.77
2022-11-07T11:27:11.700Z,1.47
2022-11-07T11:29:40.502Z,2.10
2022-11-07T11:32:12.229Z,3.20
2022-11-07T11:34:49.979Z,1.20
2022-11-07T11:37:18.153Z,0.93
2022-11-07T11:39:46.742Z,1.83
2022-11-07T11:42:19.656Z,1.23
2022-11-07T11:44:46.741Z,1.20
2022-11-07T11:47:34.732Z,4.43
2022-11-07T11:50:05.002Z,2.93
2022-11-07T11:52:32.135Z,1.33
2022-11-07T11:55:04.787Z,1.70
2022-11-07T11:57:50.957Z,2.03
2022-11-07T12:00:18.746Z,1.10
2022-11-07T12:03:06.203Z,1.57
2022-11-07T12:05:33.429Z,1.20
2022-11-07T12:08:09.126Z,1.37
2022-11-07T12:10:44.932Z,3.73
2022-11-07T12:13:12.049Z,1.00
2022-11-07T12:15:45.280Z,1.77
2022-11-07T12:18:18.184Z,1.43
2022-11-07T12:20:48.409Z,1.87
2022-11-07T12:23:15.930Z,1.63
2022-11-07T12:26:02.460Z,2.17
2022-11-07T12:28:41.858Z,3.50
2022-11-07T12:31:09.179Z,1.57
2022-11-07T12:33:49.907Z,1.80
2022-11-07T12:36:37.686Z,1.57
2022-11-07T12:39:16.234Z,2.43
2022-11-07T12:41:46.519Z,4.30
2022-11-07T12:44:22.980Z,4.57
2022-11-07T12:46:54.048Z,4.00
2022-11-07T12:49:39.576Z,16.67
2022-11-07T12:52:17.693Z,3.17
2022-11-07T12:54:44.873Z,1.63
2022-11-07T12:57:18.002Z,10.70
2022-11-07T12:59:46.309Z,39.93
2022-11-07T13:02:22.763Z,19.30
2022-11-07T13:05:13.311Z,19.97
2022-11-07T13:07:47.750Z,14.77
2022-11-07T13:10:16.496Z,3.30
2022-11-07T13:12:45.401Z,4.23
2022-11-07T13:15:13.836Z,1.40
2022-11-07T13:17:41.944Z,5.53
2022-11-07T13:20:21.456Z,2.60
2022-11-07T13:22:58.462Z,3.10
2022-11-07T13:25:32.140Z,1.73
2022-11-07T13:27:59.390Z,3.70
2022-11-07T13:30:35.650Z,3.10
2022-11-07T13:33:02.991Z,5.50
2022-11-07T13:35:39.341Z,2.40
2022-11-07T13:38:14.579Z,3.37
2022-11-07T13:40:51.299Z,1.93
2022-11-07T13:43:19.604Z,2.70
2022-11-07T13:45:55.578Z,1.80
2022-11-07T13:48:26.464Z,1.77
2022-11-07T13:50:59.874Z,1.70
2022-11-07T13:53:40.005Z,1.07
2022-11-07T13:56:09.127Z,1.70
2022-11-07T13:58:36.221Z,4.37
2022-11-07T14:01:04.731Z,3.57
2022-11-07T14:03:31.956Z,2.80
2022-11-07T14:05:59.072Z,2.50
2022-11-07T14:08:31.169Z,13.70
2022-11-07T14:10:58.293Z,1.43
2022-11-07T14:13:34.790Z,3.60
2022-11-07T14:16:08.929Z,1.50
2022-11-07T14:18:40.664Z,2.77
2022-11-07T14:21:18.051Z,1.83
2022-11-07T14:23:45.348Z,1.40
2022-11-07T14:26:32.675Z,1.80
2022-11-07T14:29:00.922Z,2.10
2022-11-07T14:31:31.721Z,1.87
2022-11-07T14:34:02.714Z,2.50
2022-11-07T14:36:30.018Z,2.90
2022-11-07T14:39:11.443Z,1.60
2022-11-07T14:41:41.852Z,1.70
2022-11-07T14:44:11.196Z,2.00
2022-11-07T14:46:38.315Z,2.07
2022-11-07T14:49:05.386Z,2.30
2022-11-07T14:51:32.649Z,7.83
2022-11-07T14:54:20.942Z,2.80
2022-11-07T14:56:49.714Z,3.23
2022-11-07T14:59:17.179Z,2.37
2022-11-07T15:01:56.675Z,1.80
2022-11-07T15:04:27.694Z,1.73
2022-11-07T15:06:55.011Z,2.00
2022-11-07T15:09:31.055Z,3.07
2022-11-07T15:11:58.568Z,2.83
2022-11-07T15:14:26.806Z,2.87
2022-11-07T15:16:53.899Z,2.37
2022-11-07T15:19:21.867Z,2.03
2022-11-07T15:21:56.311Z,2.17
2022-11-07T15:24:27.566Z,2.17
2022-11-07T15:27:01.390Z,2.50
2022-11-07T15:29:31.409Z,3.00
2022-11-07T15:31:58.474Z,2.80
2022-11-07T15:34:45.531Z,3.30
2022-11-07T15:37:21.640Z,1.70
2022-11-07T15:39:48.838Z,3.40
2022-11-07T15:42:16.111Z,3.20
2022-11-07T15:44:43.230Z,2.60
2022-11-07T15:47:18.235Z,2.07
2022-11-07T15:49:45.519Z,2.10
2022-11-07T15:52:12.628Z,7.43
2022-11-07T15:54:39.850Z,5.80
2022-11-07T15:57:07.083Z,7.60
2022-11-07T15:59:34.638Z,4.93
2022-11-07T16:02:02.088Z,5.30
2022-11-07T16:04:35.303Z,3.80
2022-11-07T16:07:05.139Z,3.10
2022-11-07T16:09:32.783Z,4.00
2022-11-07T16:12:00.276Z,2.70
2022-11-07T16:14:43.373Z,4.90
2022-11-07T16:17:21.505Z,7.60
2022-11-07T16:19:48.863Z,7.33
2022-11-07T16:22:16.222Z,7.27
2022-11-07T16:24:43.410Z,5.40
2022-11-07T16:27:14.316Z,6.33
2022-11-07T16:29:41.717Z,9.97
2022-11-07T16:32:09.800Z,7.30
2022-11-07T16:34:38.397Z,6.50
2022-11-07T16:37:05.510Z,8.80
2022-11-07T16:39:32.590Z,6.07
2022-11-07T16:41:59.684Z,5.70
2022-11-07T16:44:26.828Z,5.83
2022-11-07T16:46:55.563Z,5.37
2022-11-07T16:49:27.356Z,6.10
2022-11-07T16:51:54.499Z,5.30
2022-11-07T16:54:21.570Z,6.70
2022-11-07T16:56:51.229Z,7.73
2022-11-07T16:59:19.252Z,13.30
2022-11-07T17:01:46.552Z,14.37
2022-11-07T17:04:13.737Z,10.77
2022-11-07T17:06:46.446Z,16.00
2022-11-07T17:09:16.764Z,14.30
2022-11-07T17:11:44.482Z,14.30
2022-11-07T17:14:11.735Z,14.70
2022-11-07T17:16:38.977Z,15.23
2022-11-07T17:19:06.356Z,12.83
2022-11-07T17:21:34.448Z,10.73
2022-11-07T17:24:01.718Z,12.77
2022-11-07T17:26:30.395Z,16.27
2022-11-07T17:28:57.803Z,13.53
2022-11-07T17:31:25.154Z,14.03
2022-11-07T17:33:53.334Z,14.40
2022-11-07T17:36:35.329Z,16.53
2022-11-07T17:39:05.390Z,14.77
2022-11-07T17:41:32.490Z,13.70
2022-11-07T17:43:59.875Z,11.43
2022-11-07T17:46:30.728Z,14.50
2022-11-07T17:48:58.950Z,15.63
2022-11-07T17:51:29.454Z,14.20
2022-11-07T17:53:56.947Z,13.27
2022-11-07T17:56:28.156Z,12.90
2022-11-07T17:58:56.063Z,12.10
2022-11-07T18:01:23.754Z,9.70
2022-11-07T18:03:51.265Z,9.73
2022-11-07T18:06:18.459Z,9.63
2022-11-07T18:08:52.315Z,10.50
2022-11-07T18:11:20.478Z,10.30
2022-11-07T18:13:47.595Z,9.00
2022-11-07T18:16:15.618Z,10.70
2022-11-07T18:18:43.073Z,12.73
2022-11-07T18:21:10.163Z,12.00
2022-11-07T18:23:37.313Z,12.67
2022-11-07T18:26:08.261Z,12.83
2022-11-07T18:28:35.975Z,13.77
2022-11-07T18:31:07.333Z,12.17
2022-11-07T18:33:34.437Z,14.70
2022-11-07T18:36:05.150Z,13.70
2022-11-07T18:38:32.656Z,14.23
2022-11-07T18:41:00.503Z,12.67
2022-11-07T18:43:27.611Z,14.67
2022-11-07T18:45:54.990Z,12.30
2022-11-07T18:48:22.131Z,14.77
2022-11-07T18:50:49.206Z,14.20
2022-11-07T18:53:16.310Z,14.93
2022-11-07T18:55:43.376Z,14.73
2022-11-07T18:58:10.575Z,17.57
2022-11-07T19:00:37.784Z,17.10
2022-11-07T19:03:04.929Z,15.70
2022-11-07T19:05:32.851Z,15.67
2022-11-07T19:08:01.495Z,13.90
2022-11-07T19:10:28.583Z,13.40
2022-11-07T19:12:55.639Z,14.17
2022-11-07T19:15:24.989Z,15.47
2022-11-07T19:17:54.420Z,14.50
2022-11-07T19:20:21.642Z,14.70
2022-11-07T19:22:48.735Z,16.90
2022-11-07T19:25:18.979Z,19.63
2022-11-07T19:27:51.598Z,18.33
2022-11-07T19:30:18.818Z,19.80
2022-11-07T19:32:47.588Z,20.10
2022-11-07T19:35:16.170Z,16.30
2022-11-07T19:37:43.325Z,13.50
2022-11-07T19:40:13.017Z,12.63
2022-11-07T19:42:42.349Z,8.70
2022-11-07T19:45:12.146Z,9.77
2022-11-07T19:47:39.320Z,8.33
2022-11-07T19:50:06.658Z,8.30
2022-11-07T19:52:33.831Z,7.87
2022-11-07T19:55:00.938Z,7.47
2022-11-07T19:57:28.134Z,7.40
2022-11-07T19:59:55.291Z,7.80
2022-11-07T20:02:44.178Z,9.67
2022-11-07T20:05:09.632Z,10.80
2022-11-07T20:07:38.316Z,9.33
2022-11-07T20:10:05.621Z,8.53
2022-11-07T20:12:32.833Z,8.53
2022-11-07T20:15:03.304Z,8.03
2022-11-07T20:17:30.490Z,7.87
2022-11-07T20:20:02.652Z,7.80
2022-11-07T20:22:31.752Z,7.93
2022-11-07T20:24:58.834Z,7.80
2022-11-07T20:27:27.765Z,8.33
2022-11-07T20:29:56.987Z,8.67
2022-11-07T20:32:25.978Z,7.70
2022-11-07T20:34:54.052Z,8.50
2022-11-07T20:37:21.723Z,8.90
2022-11-07T20:39:50.129Z,10.63
2022-11-07T20:42:17.754Z,9.07
2022-11-07T20:44:48.064Z,8.83
2022-11-07T20:47:15.205Z,8.43
2022-11-07T20:49:42.404Z,8.80
2022-11-07T20:52:09.563Z,8.77
2022-11-07T20:54:39.258Z,8.30
2022-11-07T20:57:06.382Z,7.20
2022-11-07T20:59:33.624Z,8.33
2022-11-07T21:02:03.889Z,8.10
2022-11-07T21:04:44.560Z,7.87
2022-11-07T21:07:22.706Z,7.67
2022-11-07T21:09:49.951Z,8.30
2022-11-07T21:12:17.061Z,8.20
2022-11-07T21:14:44.190Z,9.97
2022-11-07T21:17:11.644Z,11.30
2022-11-07T21:19:38.993Z,8.97
2022-11-07T21:22:06.293Z,9.43
2022-11-07T21:24:33.546Z,8.73
2022-11-07T21:27:00.636Z,8.10
2022-11-07T21:29:29.865Z,8.63
2022-11-07T21:31:57.171Z,11.03
2022-11-07T21:34:24.638Z,8.37
2022-11-07T21:36:51.704Z,8.47
2022-11-07T21:39:18.817Z,9.40
2022-11-07T21:41:46.082Z,9.03
2022-11-07T21:44:13.497Z,9.27
2022-11-07T21:46:40.602Z,8.30
2022-11-07T21:49:07.912Z,8.40
2022-11-07T21:51:35.348Z,8.50
2022-11-07T21:54:02.968Z,8.17
2022-11-07T21:56:33.964Z,8.43
2022-11-07T21:59:02.085Z,8.33
2022-11-07T22:01:29.825Z,9.07
2022-11-07T22:04:06.879Z,8.80
2022-11-07T22:06:38.039Z,9.13
2022-11-07T22:09:05.398Z,9.30
2022-11-07T22:11:32.838Z,8.40
2022-11-07T22:13:59.960Z,10.13
2022-11-07T22:16:27.138Z,9.90
2022-11-07T22:18:54.283Z,10.03
2022-11-07T22:21:22.089Z,9.90
2022-11-07T22:23:49.237Z,10.20
2022-11-07T22:26:17.192Z,10.53
2022-11-07T22:28:46.005Z,9.83
2022-11-07T22:31:14.527Z,9.47
2022-11-07T22:33:41.707Z,9.97
2022-11-07T22:36:09.229Z,11.27
2022-11-07T22:38:36.579Z,9.63
2022-11-07T22:41:06.100Z,8.73
2022-11-07T22:43:33.237Z,9.40
2022-11-07T22:46:07.090Z,9.33
2022-11-07T22:48:34.246Z,10.20
2022-11-07T22:51:02.216Z,10.90
2022-11-07T22:53:29.361Z,9.23
2022-11-07T22:55:56.445Z,8.77
2022-11-07T22:58:23.608Z,10.00
2022-11-07T23:00:50.679Z,9.27
2022-11-07T23:03:18.384Z,9.60
2022-11-07T23:05:45.497Z,10.23
2022-11-07T23:08:12.638Z,10.70
2022-11-07T23:10:39.716Z,10.10
2022-11-07T23:13:06.820Z,10.30
2022-11-07T23:15:33.893Z,11.10
2022-11-07T23:18:01.622Z,9.27
2022-11-07T23:20:47.414Z,15.53
2022-11-07T23:23:14.539Z,12.23
2022-11-07T23:25:41.600Z,10.43
2022-11-07T23:28:08.689Z,11.03
2022-11-07T23:30:38.532Z,11.70
2022-11-07T23:33:05.612Z,11.97
2022-11-07T23:35:32.920Z,10.30
2022-11-07T23:38:00.066Z,11.60
2022-11-07T23:40:27.146Z,9.97
2022-11-07T23:42:54.251Z,11.37
2022-11-07T23:45:39.915Z,9.37
2022-11-07T23:48:25.937Z,10.67
2022-11-07T23:51:02.494Z,10.90
2022-11-07T23:53:52.067Z,10.80
2022-11-07T23:56:19.640Z,9.97
2022-11-07T23:59:05.673Z,10.40
